sensor_id;sensor_type;location;lat;lon;timestamp;P1;durP1;ratioP1;P2;durP2;ratioP2
19675;SDS011;39539;52.202;9.876;2023-04-01T00:01:58;2.80;;;1.42;;
19675;SDS011;39539;52.202;9.876;2023-04-01T00:04:23;4.75;;;1.67;;
19675;SDS011;39539;52.202;9.876;2023-04-01T00:06:48;1.27;;;1.02;;
19675;SDS011;39539;52.202;9.876;2023-04-01T00:09:14;2.53;;;1.15;;
19675;SDS011;39539;52.202;9.876;2023-04-01T00:11:40;2.78;;;1.42;;
19675;SDS011;39539;52.202;9.876;2023-04-01T00:14:06;2.80;;;1.30;;
19675;SDS011;39539;52.202;9.876;2023-04-01T00:16:32;2.63;;;1.27;;
19675;SDS011;39539;52.202;9.876;2023-04-01T00:18:58;2.05;;;1.27;;
19675;SDS011;39539;52.202;9.876;2023-04-01T00:21:24;3.25;;;1.30;;
19675;SDS011;39539;52.202;9.876;2023-04-01T00:23:50;3.13;;;1.08;;
19675;SDS011;39539;52.202;9.876;2023-04-01T00:26:16;2.85;;;1.20;;
19675;SDS011;39539;52.202;9.876;2023-04-01T00:28:44;3.53;;;1.27;;
19675;SDS011;39539;52.202;9.876;2023-04-01T00:31:10;1.58;;;1.00;;
19675;SDS011;39539;52.202;9.876;2023-04-01T00:33:36;3.22;;;1.35;;
19675;SDS011;39539;52.202;9.876;2023-04-01T00:36:05;2.20;;;1.23;;
19675;SDS011;39539;52.202;9.876;2023-04-01T00:38:33;3.67;;;1.38;;
19675;SDS011;39539;52.202;9.876;2023-04-01T00:40:59;3.05;;;1.35;;
19675;SDS011;39539;52.202;9.876;2023-04-01T00:43:25;1.20;;;1.00;;
19675;SDS011;39539;52.202;9.876;2023-04-01T00:45:51;2.45;;;1.30;;
19675;SDS011;39539;52.202;9.876;2023-04-01T00:48:17;1.70;;;0.90;;
19675;SDS011;39539;52.202;9.876;2023-04-01T00:50:54;1.63;;;1.02;;
19675;SDS011;39539;52.202;9.876;2023-04-01T00:53:28;1.88;;;0.85;;
19675;SDS011;39539;52.202;9.876;2023-04-01T00:55:57;2.97;;;1.17;;
19675;SDS011;39539;52.202;9.876;2023-04-01T00:58:37;1.83;;;0.93;;
19675;SDS011;39539;52.202;9.876;2023-04-01T01:01:06;1.73;;;0.68;;
19675;SDS011;39539;52.202;9.876;2023-04-01T01:03:33;1.80;;;1.00;;
19675;SDS011;39539;52.202;9.876;2023-04-01T01:11:58;1.98;;;0.80;;
19675;SDS011;39539;52.202;9.876;2023-04-01T01:18:13;2.08;;;0.82;;
19675;SDS011;39539;52.202;9.876;2023-04-01T01:20:36;1.80;;;0.95;;
19675;SDS011;39539;52.202;9.876;2023-04-01T01:36:30;2.83;;;0.85;;
19675;SDS011;39539;52.202;9.876;2023-04-01T01:38:59;0.95;;;0.60;;
19675;SDS011;39539;52.202;9.876;2023-04-01T01:41:26;2.35;;;0.80;;
19675;SDS011;39539;52.202;9.876;2023-04-01T01:43:53;1.40;;;0.90;;
19675;SDS011;39539;52.202;9.876;2023-04-01T01:46:22;1.15;;;0.68;;
19675;SDS011;39539;52.202;9.876;2023-04-01T01:48:49;1.85;;;0.82;;
19675;SDS011;39539;52.202;9.876;2023-04-01T01:51:17;2.83;;;0.95;;
19675;SDS011;39539;52.202;9.876;2023-04-01T01:53:45;1.98;;;0.73;;
19675;SDS011;39539;52.202;9.876;2023-04-01T01:56:11;1.25;;;0.75;;
19675;SDS011;39539;52.202;9.876;2023-04-01T01:58:44;0.95;;;0.90;;
19675;SDS011;39539;52.202;9.876;2023-04-01T02:01:34;2.08;;;0.93;;
19675;SDS011;39539;52.202;9.876;2023-04-01T02:03:59;2.05;;;0.90;;
19675;SDS011;39539;52.202;9.876;2023-04-01T02:06:26;1.05;;;0.77;;
19675;SDS011;39539;52.202;9.876;2023-04-01T02:08:59;2.58;;;0.88;;
19675;SDS011;39539;52.202;9.876;2023-04-01T02:14:35;2.83;;;1.15;;
19675;SDS011;39539;52.202;9.876;2023-04-01T02:17:10;1.75;;;0.80;;
19675;SDS011;39539;52.202;9.876;2023-04-01T02:19:40;2.33;;;1.00;;
19675;SDS011;39539;52.202;9.876;2023-04-01T02:22:26;1.48;;;0.80;;
19675;SDS011;39539;52.202;9.876;2023-04-01T02:24:56;1.95;;;0.95;;
19675;SDS011;39539;52.202;9.876;2023-04-01T02:27:24;1.58;;;0.70;;
19675;SDS011;39539;52.202;9.876;2023-04-01T02:29:50;1.67;;;0.90;;
19675;SDS011;39539;52.202;9.876;2023-04-01T02:32:17;1.70;;;0.80;;
19675;SDS011;39539;52.202;9.876;2023-04-01T02:34:44;2.65;;;1.02;;
19675;SDS011;39539;52.202;9.876;2023-04-01T02:37:11;1.35;;;0.73;;
19675;SDS011;39539;52.202;9.876;2023-04-01T02:39:37;1.73;;;0.80;;
19675;SDS011;39539;52.202;9.876;2023-04-01T02:42:03;1.70;;;1.00;;
19675;SDS011;39539;52.202;9.876;2023-04-01T02:44:28;1.27;;;0.70;;
19675;SDS011;39539;52.202;9.876;2023-04-01T02:46:53;1.70;;;0.70;;
19675;SDS011;39539;52.202;9.876;2023-04-01T02:49:19;2.63;;;1.02;;
19675;SDS011;39539;52.202;9.876;2023-04-01T02:51:44;1.33;;;0.82;;
19675;SDS011;39539;52.202;9.876;2023-04-01T02:54:09;1.35;;;0.88;;
19675;SDS011;39539;52.202;9.876;2023-04-01T02:56:35;0.85;;;0.65;;
19675;SDS011;39539;52.202;9.876;2023-04-01T02:59:00;1.50;;;0.88;;
19675;SDS011;39539;52.202;9.876;2023-04-01T03:01:26;1.20;;;0.98;;
19675;SDS011;39539;52.202;9.876;2023-04-01T03:03:51;1.40;;;0.75;;
19675;SDS011;39539;52.202;9.876;2023-04-01T03:06:17;1.55;;;0.75;;
19675;SDS011;39539;52.202;9.876;2023-04-01T03:08:43;1.88;;;0.80;;
19675;SDS011;39539;52.202;9.876;2023-04-01T03:11:09;1.23;;;0.85;;
19675;SDS011;39539;52.202;9.876;2023-04-01T03:13:35;1.15;;;0.80;;
19675;SDS011;39539;52.202;9.876;2023-04-01T03:16:01;1.20;;;0.50;;
19675;SDS011;39539;52.202;9.876;2023-04-01T03:18:27;3.15;;;0.98;;
19675;SDS011;39539;52.202;9.876;2023-04-01T03:20:52;1.77;;;0.82;;
19675;SDS011;39539;52.202;9.876;2023-04-01T03:23:17;0.85;;;0.70;;
19675;SDS011;39539;52.202;9.876;2023-04-01T03:25:44;1.00;;;0.60;;
19675;SDS011;39539;52.202;9.876;2023-04-01T03:28:10;1.27;;;0.70;;
19675;SDS011;39539;52.202;9.876;2023-04-01T03:30:37;0.88;;;0.60;;
19675;SDS011;39539;52.202;9.876;2023-04-01T03:33:02;2.00;;;0.90;;
19675;SDS011;39539;52.202;9.876;2023-04-01T03:35:28;1.70;;;0.80;;
19675;SDS011;39539;52.202;9.876;2023-04-01T03:37:53;1.35;;;0.80;;
19675;SDS011;39539;52.202;9.876;2023-04-01T03:40:19;1.10;;;0.63;;
19675;SDS011;39539;52.202;9.876;2023-04-01T03:42:45;1.02;;;0.80;;
19675;SDS011;39539;52.202;9.876;2023-04-01T03:45:11;1.38;;;0.90;;
19675;SDS011;39539;52.202;9.876;2023-04-01T03:47:36;1.98;;;0.60;;
19675;SDS011;39539;52.202;9.876;2023-04-01T03:50:02;0.93;;;0.70;;
19675;SDS011;39539;52.202;9.876;2023-04-01T03:52:28;1.42;;;0.70;;
19675;SDS011;39539;52.202;9.876;2023-04-01T03:54:53;0.70;;;0.60;;
19675;SDS011;39539;52.202;9.876;2023-04-01T03:57:18;0.98;;;0.68;;
19675;SDS011;39539;52.202;9.876;2023-04-01T03:59:44;1.17;;;0.80;;
19675;SDS011;39539;52.202;9.876;2023-04-01T04:02:09;1.23;;;0.60;;
19675;SDS011;39539;52.202;9.876;2023-04-01T04:04:35;1.15;;;0.98;;
19675;SDS011;39539;52.202;9.876;2023-04-01T04:07:00;1.17;;;0.63;;
19675;SDS011;39539;52.202;9.876;2023-04-01T04:09:26;1.08;;;0.80;;
19675;SDS011;39539;52.202;9.876;2023-04-01T04:11:51;2.13;;;1.42;;
19675;SDS011;39539;52.202;9.876;2023-04-01T04:14:16;1.58;;;0.90;;
19675;SDS011;39539;52.202;9.876;2023-04-01T04:16:42;1.33;;;1.00;;
19675;SDS011;39539;52.202;9.876;2023-04-01T04:19:07;2.08;;;0.98;;
19675;SDS011;39539;52.202;9.876;2023-04-01T04:21:33;2.15;;;1.45;;
19675;SDS011;39539;52.202;9.876;2023-04-01T04:23:58;2.03;;;1.60;;
19675;SDS011;39539;52.202;9.876;2023-04-01T04:26:25;3.28;;;1.67;;
19675;SDS011;39539;52.202;9.876;2023-04-01T04:28:51;1.83;;;1.70;;
19675;SDS011;39539;52.202;9.876;2023-04-01T04:31:20;2.08;;;1.60;;
19675;SDS011;39539;52.202;9.876;2023-04-01T04:33:50;1.30;;;1.20;;
19675;SDS011;39539;52.202;9.876;2023-04-01T04:36:16;1.08;;;0.98;;
19675;SDS011;39539;52.202;9.876;2023-04-01T04:38:42;1.30;;;1.10;;
19675;SDS011;39539;52.202;9.876;2023-04-01T04:41:11;1.48;;;1.10;;
19675;SDS011;39539;52.202;9.876;2023-04-01T04:43:37;2.38;;;1.30;;
19675;SDS011;39539;52.202;9.876;2023-04-01T04:46:05;1.45;;;0.90;;
19675;SDS011;39539;52.202;9.876;2023-04-01T04:48:34;1.77;;;1.20;;
19675;SDS011;39539;52.202;9.876;2023-04-01T04:51:00;2.38;;;2.03;;
19675;SDS011;39539;52.202;9.876;2023-04-01T04:53:26;1.40;;;1.30;;
19675;SDS011;39539;52.202;9.876;2023-04-01T04:55:51;2.65;;;1.60;;
19675;SDS011;39539;52.202;9.876;2023-04-01T04:58:17;2.83;;;2.55;;
19675;SDS011;39539;52.202;9.876;2023-04-01T05:00:43;3.67;;;2.30;;
19675;SDS011;39539;52.202;9.876;2023-04-01T05:03:09;1.60;;;1.50;;
19675;SDS011;39539;52.202;9.876;2023-04-01T05:05:35;3.67;;;3.38;;
19675;SDS011;39539;52.202;9.876;2023-04-01T05:08:01;1.90;;;1.80;;
19675;SDS011;39539;52.202;9.876;2023-04-01T05:10:26;2.50;;;2.30;;
19675;SDS011;39539;52.202;9.876;2023-04-01T05:12:51;1.55;;;1.45;;
19675;SDS011;39539;52.202;9.876;2023-04-01T05:15:17;3.45;;;2.70;;
19675;SDS011;39539;52.202;9.876;2023-04-01T05:17:42;2.05;;;1.85;;
19675;SDS011;39539;52.202;9.876;2023-04-01T05:20:08;2.45;;;2.33;;
19675;SDS011;39539;52.202;9.876;2023-04-01T05:22:33;3.05;;;2.75;;
19675;SDS011;39539;52.202;9.876;2023-04-01T05:24:58;3.28;;;2.65;;
19675;SDS011;39539;52.202;9.876;2023-04-01T05:27:24;2.42;;;2.10;;
19675;SDS011;39539;52.202;9.876;2023-04-01T05:29:49;1.20;;;1.10;;
19675;SDS011;39539;52.202;9.876;2023-04-01T05:32:15;2.22;;;1.30;;
19675;SDS011;39539;52.202;9.876;2023-04-01T05:34:40;2.85;;;1.75;;
19675;SDS011;39539;52.202;9.876;2023-04-01T05:37:06;1.83;;;1.23;;
19675;SDS011;39539;52.202;9.876;2023-04-01T05:39:35;1.55;;;1.00;;
19675;SDS011;39539;52.202;9.876;2023-04-01T05:42:02;1.52;;;1.27;;
19675;SDS011;39539;52.202;9.876;2023-04-01T05:44:27;2.25;;;2.05;;
19675;SDS011;39539;52.202;9.876;2023-04-01T05:46:52;3.05;;;2.20;;
19675;SDS011;39539;52.202;9.876;2023-04-01T05:49:18;2.83;;;2.00;;
19675;SDS011;39539;52.202;9.876;2023-04-01T05:51:43;2.38;;;2.17;;
19675;SDS011;39539;52.202;9.876;2023-04-01T05:54:08;2.45;;;1.60;;
19675;SDS011;39539;52.202;9.876;2023-04-01T05:56:34;1.67;;;1.58;;
19675;SDS011;39539;52.202;9.876;2023-04-01T05:58:59;3.30;;;3.00;;
19675;SDS011;39539;52.202;9.876;2023-04-01T06:01:24;2.47;;;2.28;;
19675;SDS011;39539;52.202;9.876;2023-04-01T06:03:50;2.05;;;1.58;;
19675;SDS011;39539;52.202;9.876;2023-04-01T06:06:16;3.00;;;1.63;;
19675;SDS011;39539;52.202;9.876;2023-04-01T06:08:55;1.95;;;1.50;;
19675;SDS011;39539;52.202;9.876;2023-04-01T06:11:34;4.00;;;3.05;;
19675;SDS011;39539;52.202;9.876;2023-04-01T06:14:16;2.55;;;2.20;;
19675;SDS011;39539;52.202;9.876;2023-04-01T06:30:38;5.95;;;3.10;;
19675;SDS011;39539;52.202;9.876;2023-04-01T06:36:03;2.35;;;2.15;;
19675;SDS011;39539;52.202;9.876;2023-04-01T06:50:07;3.25;;;2.95;;
19675;SDS011;39539;52.202;9.876;2023-04-01T06:58:09;1.85;;;1.33;;
19675;SDS011;39539;52.202;9.876;2023-04-01T07:00:43;1.70;;;1.00;;
19675;SDS011;39539;52.202;9.876;2023-04-01T07:06:31;1.27;;;1.00;;
19675;SDS011;39539;52.202;9.876;2023-04-01T07:09:00;1.30;;;1.05;;
19675;SDS011;39539;52.202;9.876;2023-04-01T07:11:34;1.20;;;0.75;;
19675;SDS011;39539;52.202;9.876;2023-04-01T07:14:03;2.05;;;1.08;;
19675;SDS011;39539;52.202;9.876;2023-04-01T07:19:27;1.58;;;0.90;;
19675;SDS011;39539;52.202;9.876;2023-04-01T07:25:29;1.15;;;0.90;;
19675;SDS011;39539;52.202;9.876;2023-04-01T07:28:04;1.65;;;0.90;;
19675;SDS011;39539;52.202;9.876;2023-04-01T07:30:40;1.30;;;0.60;;
19675;SDS011;39539;52.202;9.876;2023-04-01T07:33:32;1.45;;;0.80;;
19675;SDS011;39539;52.202;9.876;2023-04-01T07:36:22;1.40;;;0.70;;
19675;SDS011;39539;52.202;9.876;2023-04-01T07:41:37;1.25;;;0.75;;
19675;SDS011;39539;52.202;9.876;2023-04-01T07:55:50;0.40;;;0.40;;
19675;SDS011;39539;52.202;9.876;2023-04-01T07:58:04;1.13;;;0.60;;
19675;SDS011;39539;52.202;9.876;2023-04-01T08:00:39;0.80;;;0.47;;
19675;SDS011;39539;52.202;9.876;2023-04-01T08:03:16;1.33;;;0.73;;
19675;SDS011;39539;52.202;9.876;2023-04-01T08:17:26;0.98;;;0.60;;
19675;SDS011;39539;52.202;9.876;2023-04-01T08:22:27;1.38;;;0.75;;
19675;SDS011;39539;52.202;9.876;2023-04-01T08:24:58;0.60;;;0.60;;
19675;SDS011;39539;52.202;9.876;2023-04-01T08:27:39;1.55;;;0.60;;
19675;SDS011;39539;52.202;9.876;2023-04-01T08:30:26;1.05;;;0.50;;
19675;SDS011;39539;52.202;9.876;2023-04-01T08:33:15;2.03;;;0.90;;
19675;SDS011;39539;52.202;9.876;2023-04-01T08:35:49;0.40;;;0.40;;
19675;SDS011;39539;52.202;9.876;2023-04-01T08:38:21;1.05;;;0.50;;
19675;SDS011;39539;52.202;9.876;2023-04-01T08:59:28;0.82;;;0.50;;
19675;SDS011;39539;52.202;9.876;2023-04-01T09:07:59;0.93;;;0.50;;
19675;SDS011;39539;52.202;9.876;2023-04-01T09:27:29;0.55;;;0.40;;
19675;SDS011;39539;52.202;9.876;2023-04-01T09:30:24;0.40;;;0.40;;
19675;SDS011;39539;52.202;9.876;2023-04-01T09:33:06;0.93;;;0.50;;
19675;SDS011;39539;52.202;9.876;2023-04-01T09:44:15;0.45;;;0.30;;
19675;SDS011;39539;52.202;9.876;2023-04-01T10:06:17;0.55;;;0.45;;
19675;SDS011;39539;52.202;9.876;2023-04-01T10:14:23;1.95;;;0.55;;
19675;SDS011;39539;52.202;9.876;2023-04-01T10:16:58;0.40;;;0.30;;
19675;SDS011;39539;52.202;9.876;2023-04-01T10:19:55;0.70;;;0.28;;
19675;SDS011;39539;52.202;9.876;2023-04-01T10:22:36;0.38;;;0.38;;
19675;SDS011;39539;52.202;9.876;2023-04-01T10:28:01;0.40;;;0.40;;
19675;SDS011;39539;52.202;9.876;2023-04-01T10:31:06;0.52;;;0.30;;
19675;SDS011;39539;52.202;9.876;2023-04-01T10:42:44;0.65;;;0.35;;
19675;SDS011;39539;52.202;9.876;2023-04-01T11:16:22;1.95;;;0.40;;
19675;SDS011;39539;52.202;9.876;2023-04-01T11:38:04;1.30;;;0.70;;
19675;SDS011;39539;52.202;9.876;2023-04-01T11:41:12;1.95;;;0.70;;
19675;SDS011;39539;52.202;9.876;2023-04-01T11:43:50;0.93;;;0.52;;
19675;SDS011;39539;52.202;9.876;2023-04-01T11:54:54;1.08;;;0.50;;
19675;SDS011;39539;52.202;9.876;2023-04-01T12:00:40;0.47;;;0.40;;
19675;SDS011;39539;52.202;9.876;2023-04-01T12:08:55;0.60;;;0.40;;
19675;SDS011;39539;52.202;9.876;2023-04-01T12:19:53;2.03;;;0.55;;
19675;SDS011;39539;52.202;9.876;2023-04-01T12:25:16;0.38;;;0.38;;
19675;SDS011;39539;52.202;9.876;2023-04-01T12:36:05;1.05;;;0.60;;
19675;SDS011;39539;52.202;9.876;2023-04-01T12:41:53;0.70;;;0.60;;
19675;SDS011;39539;52.202;9.876;2023-04-01T12:53:24;0.40;;;0.40;;
19675;SDS011;39539;52.202;9.876;2023-04-01T12:55:53;0.30;;;0.22;;
19675;SDS011;39539;52.202;9.876;2023-04-01T12:58:32;0.35;;;0.35;;
19675;SDS011;39539;52.202;9.876;2023-04-01T13:01:14;0.50;;;0.50;;
19675;SDS011;39539;52.202;9.876;2023-04-01T13:20:13;1.20;;;0.50;;
19675;SDS011;39539;52.202;9.876;2023-04-01T13:28:25;0.32;;;0.32;;
19675;SDS011;39539;52.202;9.876;2023-04-01T13:42:44;0.77;;;0.75;;
19675;SDS011;39539;52.202;9.876;2023-04-01T13:45:59;6.75;;;1.58;;
19675;SDS011;39539;52.202;9.876;2023-04-01T13:51:24;1.40;;;1.30;;
19675;SDS011;39539;52.202;9.876;2023-04-01T14:10:11;0.50;;;0.50;;
19675;SDS011;39539;52.202;9.876;2023-04-01T14:12:50;0.82;;;0.80;;
19675;SDS011;39539;52.202;9.876;2023-04-01T14:26:26;1.63;;;1.52;;
19675;SDS011;39539;52.202;9.876;2023-04-01T14:42:54;2.30;;;2.10;;
19675;SDS011;39539;52.202;9.876;2023-04-01T14:51:09;2.92;;;2.65;;
19675;SDS011;39539;52.202;9.876;2023-04-01T14:53:51;2.00;;;1.80;;
19675;SDS011;39539;52.202;9.876;2023-04-01T14:56:43;2.10;;;2.00;;
19675;SDS011;39539;52.202;9.876;2023-04-01T15:01:49;2.05;;;1.95;;
19675;SDS011;39539;52.202;9.876;2023-04-01T15:07:11;3.72;;;3.53;;
19675;SDS011;39539;52.202;9.876;2023-04-01T15:09:53;4.18;;;3.97;;
19675;SDS011;39539;52.202;9.876;2023-04-01T15:12:30;4.45;;;4.25;;
19675;SDS011;39539;52.202;9.876;2023-04-01T15:15:12;4.15;;;3.95;;
19675;SDS011;39539;52.202;9.876;2023-04-01T15:17:50;3.05;;;2.92;;
19675;SDS011;39539;52.202;9.876;2023-04-01T15:28:36;1.88;;;1.77;;
19675;SDS011;39539;52.202;9.876;2023-04-01T15:34:11;1.80;;;1.70;;
19675;SDS011;39539;52.202;9.876;2023-04-01T15:47:08;3.88;;;3.67;;
19675;SDS011;39539;52.202;9.876;2023-04-01T15:49:48;3.22;;;3.03;;
19675;SDS011;39539;52.202;9.876;2023-04-01T15:52:23;3.85;;;3.65;;
19675;SDS011;39539;52.202;9.876;2023-04-01T16:03:14;2.63;;;2.42;;
19675;SDS011;39539;52.202;9.876;2023-04-01T16:12:24;3.22;;;2.92;;
19675;SDS011;39539;52.202;9.876;2023-04-01T16:14:44;3.42;;;3.17;;
19675;SDS011;39539;52.202;9.876;2023-04-01T16:20:20;3.33;;;3.03;;
19675;SDS011;39539;52.202;9.876;2023-04-01T16:22:53;2.85;;;2.65;;
19675;SDS011;39539;52.202;9.876;2023-04-01T16:28:22;2.47;;;2.28;;
19675;SDS011;39539;52.202;9.876;2023-04-01T16:31:11;2.05;;;1.85;;
19675;SDS011;39539;52.202;9.876;2023-04-01T16:42:07;2.35;;;2.15;;
19675;SDS011;39539;52.202;9.876;2023-04-01T16:47:32;3.88;;;3.58;;
19675;SDS011;39539;52.202;9.876;2023-04-01T16:50:17;2.40;;;2.20;;
19675;SDS011;39539;52.202;9.876;2023-04-01T16:55:32;2.58;;;2.38;;
19675;SDS011;39539;52.202;9.876;2023-04-01T16:58:01;3.38;;;2.00;;
19675;SDS011;39539;52.202;9.876;2023-04-01T17:03:38;3.28;;;2.97;;
19675;SDS011;39539;52.202;9.876;2023-04-01T17:06:23;3.28;;;2.97;;
19675;SDS011;39539;52.202;9.876;2023-04-01T17:11:44;2.47;;;2.17;;
19675;SDS011;39539;52.202;9.876;2023-04-01T17:14:25;2.58;;;2.38;;
19675;SDS011;39539;52.202;9.876;2023-04-01T17:36:31;2.08;;;1.92;;
19675;SDS011;39539;52.202;9.876;2023-04-01T17:44:25;3.10;;;2.22;;
19675;SDS011;39539;52.202;9.876;2023-04-01T17:49:56;2.03;;;1.83;;
19675;SDS011;39539;52.202;9.876;2023-04-01T17:57:50;3.40;;;2.00;;
19675;SDS011;39539;52.202;9.876;2023-04-01T18:00:47;1.63;;;1.52;;
19675;SDS011;39539;52.202;9.876;2023-04-01T18:06:26;1.55;;;1.45;;
19675;SDS011;39539;52.202;9.876;2023-04-01T18:08:59;1.70;;;1.60;;
19675;SDS011;39539;52.202;9.876;2023-04-01T18:11:33;1.63;;;1.52;;
19675;SDS011;39539;52.202;9.876;2023-04-01T18:24:49;2.40;;;2.20;;
19675;SDS011;39539;52.202;9.876;2023-04-01T18:27:24;2.72;;;2.38;;
19675;SDS011;39539;52.202;9.876;2023-04-01T18:32:44;2.70;;;2.50;;
19675;SDS011;39539;52.202;9.876;2023-04-01T18:35:29;3.67;;;3.38;;
19675;SDS011;39539;52.202;9.876;2023-04-01T18:43:59;2.72;;;2.53;;
19675;SDS011;39539;52.202;9.876;2023-04-01T18:49:45;2.65;;;2.45;;
19675;SDS011;39539;52.202;9.876;2023-04-01T18:52:36;2.00;;;1.90;;
19675;SDS011;39539;52.202;9.876;2023-04-01T18:57:49;2.53;;;2.42;;
19675;SDS011;39539;52.202;9.876;2023-04-01T19:00:19;2.45;;;2.25;;
19675;SDS011;39539;52.202;9.876;2023-04-01T19:05:51;3.00;;;2.45;;
19675;SDS011;39539;52.202;9.876;2023-04-01T19:08:34;2.42;;;2.22;;
19675;SDS011;39539;52.202;9.876;2023-04-01T19:11:04;2.40;;;2.30;;
19675;SDS011;39539;52.202;9.876;2023-04-01T19:16:28;2.60;;;2.40;;
19675;SDS011;39539;52.202;9.876;2023-04-01T19:21:56;2.53;;;2.33;;
19675;SDS011;39539;52.202;9.876;2023-04-01T19:38:03;2.95;;;2.53;;
19675;SDS011;39539;52.202;9.876;2023-04-01T20:08:54;3.78;;;3.47;;
19675;SDS011;39539;52.202;9.876;2023-04-01T20:11:36;4.28;;;3.90;;
19675;SDS011;39539;52.202;9.876;2023-04-01T20:14:29;4.13;;;3.72;;
19675;SDS011;39539;52.202;9.876;2023-04-01T20:19:37;4.28;;;3.88;;
19675;SDS011;39539;52.202;9.876;2023-04-01T20:22:19;3.83;;;3.53;;
19675;SDS011;39539;52.202;9.876;2023-04-01T20:24:47;4.43;;;4.07;;
19675;SDS011;39539;52.202;9.876;2023-04-01T20:35:37;4.15;;;3.75;;
19675;SDS011;39539;52.202;9.876;2023-04-01T20:41:12;4.03;;;3.63;;
19675;SDS011;39539;52.202;9.876;2023-04-01T20:48:59;4.88;;;4.25;;
19675;SDS011;39539;52.202;9.876;2023-04-01T20:51:43;5.38;;;4.88;;
19675;SDS011;39539;52.202;9.876;2023-04-01T20:59:58;4.47;;;4.07;;
19675;SDS011;39539;52.202;9.876;2023-04-01T21:02:47;4.57;;;4.20;;
19675;SDS011;39539;52.202;9.876;2023-04-01T21:08:49;4.63;;;4.25;;
19675;SDS011;39539;52.202;9.876;2023-04-01T21:22:15;4.38;;;4.07;;
19675;SDS011;39539;52.202;9.876;2023-04-01T21:37:31;5.10;;;4.68;;
19675;SDS011;39539;52.202;9.876;2023-04-01T22:07:08;5.03;;;4.32;;
19675;SDS011;39539;52.202;9.876;2023-04-01T22:12:35;5.85;;;5.35;;
19675;SDS011;39539;52.202;9.876;2023-04-01T22:17:46;8.68;;;6.28;;
19675;SDS011;39539;52.202;9.876;2023-04-01T22:23:20;6.88;;;6.18;;
19675;SDS011;39539;52.202;9.876;2023-04-01T22:29:17;5.72;;;4.15;;
19675;SDS011;39539;52.202;9.876;2023-04-01T22:31:43;4.10;;;3.70;;
19675;SDS011;39539;52.202;9.876;2023-04-01T22:44:47;5.93;;;4.88;;
19675;SDS011;39539;52.202;9.876;2023-04-01T22:52:33;5.25;;;4.43;;
19675;SDS011;39539;52.202;9.876;2023-04-01T22:55:38;4.63;;;4.22;;
19675;SDS011;39539;52.202;9.876;2023-04-01T22:57:58;8.32;;;5.13;;
19675;SDS011;39539;52.202;9.876;2023-04-01T23:00:30;6.65;;;6.05;;
19675;SDS011;39539;52.202;9.876;2023-04-01T23:05:25;6.10;;;5.38;;
19675;SDS011;39539;52.202;9.876;2023-04-01T23:13:29;6.55;;;5.75;;
19675;SDS011;39539;52.202;9.876;2023-04-01T23:16:09;7.97;;;6.30;;
19675;SDS011;39539;52.202;9.876;2023-04-01T23:21:36;7.22;;;5.65;;
19675;SDS011;39539;52.202;9.876;2023-04-01T23:29:37;7.53;;;6.82;;
19675;SDS011;39539;52.202;9.876;2023-04-01T23:32:18;7.05;;;6.10;;
19675;SDS011;39539;52.202;9.876;2023-04-01T23:34:48;6.20;;;5.60;;
19675;SDS011;39539;52.202;9.876;2023-04-01T23:37:16;7.57;;;6.82;;
19675;SDS011;39539;52.202;9.876;2023-04-01T23:39:50;8.73;;;6.10;;
19675;SDS011;39539;52.202;9.876;2023-04-01T23:44:46;9.68;;;6.97;;
19675;SDS011;39539;52.202;9.876;2023-04-01T23:47:18;8.43;;;6.68;;
19675;SDS011;39539;52.202;9.876;2023-04-01T23:49:47;8.20;;;7.20;;
19675;SDS011;39539;52.202;9.876;2023-04-01T23:52:24;7.00;;;6.30;;
19675;SDS011;39539;52.202;9.876;2023-04-01T23:54:56;7.40;;;6.70;;
19675;SDS011;39539;52.202;9.876;2023-04-01T23:57:34;11.68;;;7.20;;
